createdAt,value
2022-08-17T00:04:55.195Z,8.70
2022-08-17T00:07:22.302Z,8.02
2022-08-17T00:09:48.986Z,10.90
2022-08-17T00:12:41.694Z,7.93
2022-08-17T00:15:02.619Z,7.20
2022-08-17T00:17:29.306Z,7.22
2022-08-17T00:19:55.893Z,6.72
2022-08-17T00:22:34.814Z,6.53
2022-08-17T00:25:07.228Z,8.70
2022-08-17T00:27:33.908Z,5.90
2022-08-17T00:30:00.616Z,6.68
2022-08-17T00:33:13.569Z,6.30
2022-08-17T00:35:17.588Z,5.28
2022-08-17T00:37:44.617Z,7.03
2022-08-17T00:40:14.569Z,5.38
2022-08-17T00:42:43.412Z,5.70
2022-08-17T00:45:13.679Z,5.35
2022-08-17T00:47:41.828Z,6.15
2022-08-17T00:50:13.612Z,5.38
2022-08-17T00:52:48.305Z,5.97
2022-08-17T00:55:15.073Z,5.40
2022-08-17T00:57:45.389Z,5.32
2022-08-17T01:00:17.966Z,7.07
2022-08-17T01:02:46.679Z,6.20
2022-08-17T01:05:19.854Z,5.43
2022-08-17T01:07:50.969Z,9.15
2022-08-17T01:10:58.842Z,5.20
2022-08-17T01:13:10.273Z,6.78
2022-08-17T01:15:46.020Z,6.82
2022-08-17T01:18:13.846Z,7.78
2022-08-17T01:21:04.195Z,7.45
2022-08-17T01:23:30.982Z,7.30
2022-08-17T01:26:01.867Z,8.10
2022-08-17T01:28:52.637Z,9.65
2022-08-17T01:31:20.520Z,10.38
2022-08-17T01:33:47.560Z,9.32
2022-08-17T01:36:14.151Z,9.32
2022-08-17T01:38:40.899Z,9.18
2022-08-17T01:41:12.486Z,9.13
2022-08-17T01:43:49.637Z,9.00
2022-08-17T01:46:21.842Z,9.25
2022-08-17T01:48:48.682Z,9.27
2022-08-17T01:51:16.058Z,9.20
2022-08-17T01:53:47.482Z,9.23
2022-08-17T01:56:19.521Z,9.70
2022-08-17T01:58:46.927Z,9.50
2022-08-17T02:01:18.863Z,9.95
2022-08-17T02:03:56.195Z,11.52
2022-08-17T02:06:52.661Z,10.15
2022-08-17T02:09:29.649Z,9.10
2022-08-17T02:11:58.768Z,11.45
2022-08-17T02:14:26.045Z,9.18
2022-08-17T02:16:53.804Z,8.38
2022-08-17T02:19:21.904Z,9.57
2022-08-17T02:21:51.161Z,9.65
2022-08-17T02:25:00.026Z,9.15
2022-08-17T02:27:29.323Z,10.88
2022-08-17T02:29:55.934Z,9.55
2022-08-17T02:32:27.349Z,7.97
2022-08-17T02:34:54.662Z,8.52
2022-08-17T02:37:21.321Z,8.63
2022-08-17T02:39:47.935Z,9.00
2022-08-17T02:42:15.068Z,9.52
2022-08-17T02:44:42.410Z,10.52
2022-08-17T02:47:09.949Z,10.07
2022-08-17T02:49:37.752Z,9.10
2022-08-17T02:52:07.476Z,9.85
2022-08-17T02:54:41.233Z,8.80
2022-08-17T02:57:10.124Z,8.55
2022-08-17T02:59:46.766Z,9.05
2022-08-17T03:02:15.490Z,9.38
2022-08-17T03:04:42.206Z,9.43
2022-08-17T03:07:08.825Z,10.65
2022-08-17T03:09:35.524Z,10.07
2022-08-17T03:12:14.368Z,9.35
2022-08-17T03:14:42.063Z,9.20
2022-08-17T03:17:10.217Z,9.70
2022-08-17T03:19:37.715Z,9.60
2022-08-17T03:22:36.985Z,10.75
2022-08-17T03:27:22.963Z,13.23
2022-08-17T03:29:50.551Z,10.50
2022-08-17T03:32:17.572Z,9.65
2022-08-17T03:34:44.404Z,10.48
2022-08-17T03:37:10.983Z,10.23
2022-08-17T03:39:38.158Z,10.82
2022-08-17T03:42:32.084Z,12.80
2022-08-17T03:45:00.195Z,11.70
2022-08-17T03:47:45.683Z,11.02
2022-08-17T03:50:32.035Z,15.77
2022-08-17T03:53:17.658Z,12.05
2022-08-17T03:56:03.511Z,12.13
2022-08-17T03:58:30.253Z,11.68
2022-08-17T04:00:56.976Z,12.85
2022-08-17T04:03:23.589Z,13.20
2022-08-17T04:05:50.229Z,20.70
2022-08-17T04:08:16.796Z,13.20
2022-08-17T04:10:45.098Z,13.85
2022-08-17T04:13:12.345Z,11.35
2022-08-17T04:15:39.007Z,13.68
2022-08-17T04:18:07.436Z,12.95
2022-08-17T04:20:34.279Z,17.40
2022-08-17T04:23:04.958Z,12.35
2022-08-17T04:25:34.174Z,14.75
2022-08-17T04:28:01.249Z,13.20
2022-08-17T04:30:32.147Z,13.73
2022-08-17T04:33:06.462Z,13.13
2022-08-17T04:35:39.706Z,13.40
2022-08-17T04:38:08.180Z,14.98
2022-08-17T04:40:53.737Z,14.70
2022-08-17T04:43:22.936Z,14.90
2022-08-17T04:45:56.208Z,14.57
2022-08-17T04:48:45.884Z,15.35
2022-08-17T04:51:18.412Z,15.73
2022-08-17T04:53:54.154Z,16.25
2022-08-17T04:56:21.779Z,14.57
2022-08-17T04:58:51.471Z,13.43
2022-08-17T05:01:23.574Z,14.85
2022-08-17T05:03:53.295Z,19.85
2022-08-17T05:06:20.365Z,15.05
2022-08-17T05:08:46.960Z,15.85
2022-08-17T05:11:14.125Z,17.13
2022-08-17T05:13:40.881Z,15.50
2022-08-17T05:16:09.122Z,16.73
2022-08-17T05:18:37.275Z,14.50
2022-08-17T05:21:03.998Z,16.08
2022-08-17T05:23:32.006Z,15.27
2022-08-17T05:26:18.610Z,15.10
2022-08-17T05:28:53.954Z,15.00
2022-08-17T05:31:21.300Z,14.90
2022-08-17T05:33:49.459Z,19.08
2022-08-17T05:36:41.831Z,15.75
2022-08-17T05:41:29.564Z,14.40
2022-08-17T05:43:56.612Z,16.55
2022-08-17T05:46:28.852Z,14.80
2022-08-17T05:49:04.548Z,14.65
2022-08-17T05:51:33.913Z,14.23
2022-08-17T05:54:03.163Z,13.65
2022-08-17T05:56:57.771Z,14.00
2022-08-17T05:59:55.250Z,15.27
2022-08-17T06:02:33.580Z,14.30
2022-08-17T06:05:18.809Z,17.55
2022-08-17T06:08:25.841Z,14.07
2022-08-17T06:10:58.266Z,14.90
2022-08-17T06:13:46.749Z,13.30
2022-08-17T06:16:31.173Z,12.98
2022-08-17T06:19:10.025Z,13.95
2022-08-17T06:21:41.639Z,14.47
2022-08-17T06:24:20.241Z,12.70
2022-08-17T06:26:47.836Z,11.98
2022-08-17T06:29:37.279Z,14.52
2022-08-17T06:32:08.473Z,12.05
2022-08-17T06:34:37.447Z,12.93
2022-08-17T06:37:03.932Z,12.57
2022-08-17T06:39:54.286Z,13.75
2022-08-17T06:43:02.269Z,15.63
2022-08-17T06:45:15.538Z,11.48
2022-08-17T06:47:47.811Z,11.32
2022-08-17T06:50:23.958Z,11.77
2022-08-17T06:52:57.694Z,12.10
2022-08-17T06:55:38.261Z,10.75
2022-08-17T06:58:12.395Z,13.75
2022-08-17T07:00:46.168Z,10.02
2022-08-17T07:03:16.455Z,10.98
2022-08-17T07:06:05.680Z,12.68
2022-08-17T07:09:02.405Z,8.63
2022-08-17T07:14:37.914Z,8.88
2022-08-17T07:17:10.423Z,7.90
2022-08-17T07:19:42.365Z,7.72
2022-08-17T07:23:00.678Z,8.70
2022-08-17T07:25:28.607Z,9.43
2022-08-17T07:28:00.269Z,8.45
2022-08-17T07:30:46.853Z,8.25
2022-08-17T07:33:26.964Z,8.43
2022-08-17T07:35:54.025Z,7.65
2022-08-17T07:38:26.863Z,7.70
2022-08-17T07:41:03.603Z,9.25
2022-08-17T07:43:31.164Z,7.95
2022-08-17T07:46:39.579Z,8.65
2022-08-17T07:49:08.864Z,7.82
2022-08-17T07:51:45.657Z,7.68
2022-08-17T07:54:15.437Z,7.65
2022-08-17T07:56:46.410Z,7.25
2022-08-17T07:59:15.583Z,7.30
2022-08-17T08:01:49.034Z,8.63
2022-08-17T08:04:59.714Z,8.63
2022-08-17T08:07:25.592Z,10.02
2022-08-17T08:10:13.776Z,11.00
2022-08-17T08:12:48.935Z,8.65
2022-08-17T08:15:33.347Z,10.18
2022-08-17T08:18:03.625Z,11.88
2022-08-17T08:20:52.306Z,10.32
2022-08-17T08:23:33.398Z,10.30
2022-08-17T08:26:10.201Z,11.55
2022-08-17T08:29:10.662Z,12.63
2022-08-17T08:31:50.812Z,12.52
2022-08-17T08:34:44.571Z,13.15
2022-08-17T08:37:53.428Z,13.73
2022-08-17T08:45:32.327Z,14.05
2022-08-17T08:48:12.761Z,12.15
2022-08-17T08:51:15.311Z,13.77
2022-08-17T08:54:12.300Z,12.07
2022-08-17T08:57:05.009Z,15.35
2022-08-17T08:59:41.794Z,12.30
2022-08-17T09:02:34.626Z,12.45
2022-08-17T09:05:31.270Z,13.88
2022-08-17T09:08:24.508Z,14.65
2022-08-17T09:11:04.275Z,12.68
2022-08-17T09:14:00.838Z,18.40
2022-08-17T09:16:37.675Z,12.57
2022-08-17T09:19:30.373Z,11.48
2022-08-17T09:22:53.020Z,12.02
2022-08-17T09:25:23.645Z,11.75
2022-08-17T09:28:04.069Z,11.75
2022-08-17T09:31:08.598Z,14.18
2022-08-17T09:33:42.487Z,12.90
2022-08-17T09:36:29.287Z,13.52
2022-08-17T09:39:10.174Z,12.52
2022-08-17T09:41:59.973Z,12.68
2022-08-17T09:44:38.612Z,13.70
2022-08-17T09:47:30.610Z,12.50
2022-08-17T09:50:06.060Z,16.02
2022-08-17T09:52:32.711Z,14.82
2022-08-17T09:55:01.062Z,13.30
2022-08-17T09:57:52.118Z,14.65
2022-08-17T10:00:28.460Z,12.98
2022-08-17T10:03:21.125Z,14.95
2022-08-17T10:06:21.804Z,15.45
2022-08-17T10:09:09.818Z,13.32
2022-08-17T10:12:03.426Z,13.50
2022-08-17T10:14:44.431Z,13.30
2022-08-17T10:17:53.997Z,14.43
2022-08-17T10:20:22.124Z,12.48
2022-08-17T10:23:16.338Z,11.52
2022-08-17T10:26:04.623Z,12.60
2022-08-17T10:28:43.511Z,12.90
2022-08-17T10:31:34.155Z,12.40
2022-08-17T10:34:07.524Z,13.18
2022-08-17T10:37:22.031Z,12.73
2022-08-17T10:40:35.572Z,11.30
2022-08-17T10:43:33.349Z,11.85
2022-08-17T10:46:10.363Z,11.80
2022-08-17T10:49:20.988Z,14.98
2022-08-17T10:51:48.699Z,13.60
2022-08-17T10:54:25.332Z,13.88
2022-08-17T10:56:54.644Z,12.77
2022-08-17T10:59:36.423Z,13.13
2022-08-17T11:02:12.631Z,12.82
2022-08-17T11:05:00.523Z,13.85
2022-08-17T11:07:55.338Z,14.25
2022-08-17T11:11:04.204Z,12.27
2022-08-17T11:13:40.744Z,16.38
2022-08-17T11:16:36.306Z,13.57
2022-08-17T11:19:31.748Z,13.95
2022-08-17T11:22:19.283Z,14.10
2022-08-17T11:24:51.333Z,13.45
2022-08-17T11:27:31.411Z,13.68
2022-08-17T11:30:05.453Z,13.02
2022-08-17T11:32:47.508Z,15.00
2022-08-17T11:35:20.667Z,12.27
2022-08-17T11:38:02.853Z,13.38
2022-08-17T11:41:07.077Z,15.07
2022-08-17T11:43:55.485Z,16.13
2022-08-17T11:47:13.377Z,15.00
2022-08-17T11:50:01.474Z,15.35
2022-08-17T11:52:47.086Z,13.07
2022-08-17T11:55:39.617Z,14.02
2022-08-17T11:58:31.205Z,13.27
2022-08-17T12:01:23.152Z,14.05
2022-08-17T12:04:00.764Z,12.20
2022-08-17T12:06:30.886Z,16.33
2022-08-17T12:09:02.371Z,12.77
2022-08-17T12:11:58.767Z,16.73
2022-08-17T12:15:08.062Z,14.63
2022-08-17T12:17:40.555Z,11.15
2022-08-17T12:20:21.464Z,12.32
2022-08-17T12:23:04.882Z,12.73
2022-08-17T12:25:43.179Z,17.85
2022-08-17T12:28:22.795Z,11.93
2022-08-17T12:30:51.931Z,16.23
2022-08-17T12:33:25.618Z,13.05
2022-08-17T12:36:05.930Z,14.13
2022-08-17T12:38:35.215Z,12.38
2022-08-17T12:41:22.524Z,12.90
2022-08-17T12:44:19.461Z,12.80
2022-08-17T12:47:29.476Z,12.02
2022-08-17T12:50:29.621Z,14.85
2022-08-17T12:53:01.764Z,13.20
2022-08-17T12:55:38.372Z,14.13
2022-08-17T12:58:08.917Z,13.68
2022-08-17T13:00:47.404Z,12.32
2022-08-17T13:03:23.887Z,15.55
2022-08-17T13:08:30.700Z,12.23
2022-08-17T13:11:01.458Z,12.32
2022-08-17T13:13:31.199Z,15.27
2022-08-17T13:16:04.518Z,12.77
2022-08-17T13:18:34.140Z,13.35
2022-08-17T13:21:01.240Z,12.68
2022-08-17T13:23:32.344Z,12.93
2022-08-17T13:26:15.996Z,11.63
2022-08-17T13:28:51.746Z,12.43
2022-08-17T13:31:30.438Z,11.65
2022-08-17T13:34:25.452Z,11.80
2022-08-17T13:37:32.671Z,16.42
2022-08-17T13:40:23.157Z,12.65
2022-08-17T13:42:53.387Z,12.70
2022-08-17T13:45:34.897Z,14.00
2022-08-17T13:48:13.967Z,13.15
2022-08-17T13:51:02.501Z,13.90
2022-08-17T13:53:36.880Z,13.25
2022-08-17T13:56:37.689Z,12.43
2022-08-17T13:59:00.175Z,13.60
2022-08-17T14:01:34.473Z,13.15
2022-08-17T14:04:06.379Z,14.38
2022-08-17T14:06:52.862Z,16.38
2022-08-17T14:09:41.022Z,13.98
2022-08-17T14:12:15.378Z,15.10
2022-08-17T14:14:43.050Z,16.83
2022-08-17T14:17:12.221Z,13.20
2022-08-17T14:19:39.715Z,15.32
2022-08-17T14:22:18.679Z,14.50
2022-08-17T14:24:45.774Z,15.30
2022-08-17T14:27:12.503Z,14.13
2022-08-17T14:29:41.145Z,14.02
2022-08-17T14:32:17.124Z,13.95
2022-08-17T14:34:45.103Z,13.82
2022-08-17T14:37:12.275Z,14.50
2022-08-17T14:39:38.914Z,15.23
2022-08-17T14:42:05.634Z,19.10
2022-08-17T14:44:32.599Z,14.25
2022-08-17T14:46:59.195Z,14.00
2022-08-17T14:49:26.149Z,15.00
2022-08-17T14:51:52.922Z,16.30
2022-08-17T14:54:33.302Z,15.50
2022-08-17T14:57:23.679Z,16.63
2022-08-17T14:59:54.572Z,21.85
2022-08-17T15:02:30.234Z,16.95
2022-08-17T15:05:02.856Z,19.25
2022-08-17T15:07:30.966Z,17.92
2022-08-17T15:10:00.394Z,18.23
2022-08-17T15:12:32.858Z,17.70
2022-08-17T15:15:02.030Z,17.65
2022-08-17T15:17:51.223Z,18.77
2022-08-17T15:22:49.780Z,18.92
2022-08-17T15:25:36.506Z,20.45
2022-08-17T15:28:03.289Z,19.48
2022-08-17T15:30:31.004Z,20.98
2022-08-17T15:32:59.316Z,20.90
2022-08-17T15:35:30.173Z,23.15
2022-08-17T15:38:09.877Z,22.25
2022-08-17T15:40:41.953Z,21.88
2022-08-17T15:43:15.350Z,22.65
2022-08-17T15:45:42.886Z,25.73
2022-08-17T15:48:09.740Z,25.98
2022-08-17T15:50:36.501Z,23.15
2022-08-17T15:53:04.789Z,23.38
2022-08-17T15:55:32.434Z,24.20
2022-08-17T15:57:59.825Z,23.73
2022-08-17T16:00:29.248Z,26.38
2022-08-17T16:03:45.711Z,22.98
2022-08-17T16:05:46.497Z,23.98
2022-08-17T16:08:20.120Z,25.88
2022-08-17T16:10:48.514Z,25.92
2022-08-17T16:13:17.511Z,24.75
2022-08-17T16:15:47.777Z,22.67
2022-08-17T16:18:24.814Z,21.90
2022-08-17T16:20:51.516Z,21.05
2022-08-17T16:23:20.191Z,21.10
2022-08-17T16:25:53.327Z,23.08
2022-08-17T16:28:21.868Z,22.25
2022-08-17T16:30:48.676Z,20.70
2022-08-17T16:33:16.697Z,18.77
2022-08-17T16:35:43.311Z,19.25
2022-08-17T16:38:10.915Z,18.40
2022-08-17T16:40:38.033Z,18.38
2022-08-17T16:43:10.631Z,18.52
2022-08-17T16:45:40.638Z,17.70
2022-08-17T16:48:08.199Z,18.35
2022-08-17T16:50:35.480Z,19.48
2022-08-17T16:53:07.521Z,18.08
2022-08-17T16:55:35.762Z,17.42
2022-08-17T16:58:06.367Z,16.77
2022-08-17T17:00:34.198Z,16.02
2022-08-17T17:03:19.049Z,17.98
2022-08-17T17:05:59.270Z,13.82
2022-08-17T17:08:34.741Z,13.57
2022-08-17T17:11:09.646Z,15.45
2022-08-17T17:13:44.514Z,14.55
2022-08-17T17:16:21.784Z,13.68
2022-08-17T17:19:06.960Z,12.80
2022-08-17T17:22:14.502Z,12.75
2022-08-17T17:25:16.839Z,14.05
2022-08-17T17:28:34.571Z,12.57
2022-08-17T17:31:21.071Z,12.80
2022-08-17T17:36:20.616Z,11.20
2022-08-17T17:38:53.110Z,11.07
2022-08-17T17:41:32.522Z,11.30
2022-08-17T17:44:13.204Z,9.93
2022-08-17T17:46:53.160Z,10.85
2022-08-17T17:49:20.592Z,10.82
2022-08-17T17:52:12.324Z,11.80
2022-08-17T17:55:01.284Z,10.65
2022-08-17T17:57:58.977Z,11.77
2022-08-17T18:00:37.864Z,12.10
2022-08-17T18:03:39.903Z,10.98
2022-08-17T18:06:16.312Z,12.23
2022-08-17T18:08:52.875Z,11.35
2022-08-17T18:11:43.652Z,10.35
2022-08-17T18:14:14.807Z,10.02
2022-08-17T18:16:42.797Z,12.50
2022-08-17T18:19:20.621Z,10.32
2022-08-17T18:22:04.035Z,9.88
2022-08-17T18:24:39.346Z,11.93
2022-08-17T18:27:31.178Z,11.02
2022-08-17T18:30:03.379Z,11.95
2022-08-17T18:32:35.741Z,10.10
2022-08-17T18:35:02.437Z,10.85
2022-08-17T18:37:32.947Z,12.07
2022-08-17T18:40:14.241Z,10.15
2022-08-17T18:42:41.002Z,9.73
2022-08-17T18:45:07.795Z,9.65
2022-08-17T18:47:34.443Z,9.82
2022-08-17T18:50:21.959Z,9.10
2022-08-17T18:52:48.703Z,10.13
2022-08-17T18:55:20.133Z,9.43
2022-08-17T18:57:56.971Z,10.90
2022-08-17T19:00:26.659Z,9.35
2022-08-17T19:02:56.828Z,11.35
2022-08-17T19:05:35.696Z,9.23
2022-08-17T19:08:35.503Z,9.63
2022-08-17T19:11:27.033Z,12.40
2022-08-17T19:14:07.858Z,9.43
2022-08-17T19:16:59.277Z,9.18
2022-08-17T19:19:49.320Z,9.50
2022-08-17T19:22:29.087Z,9.98
2022-08-17T19:25:10.902Z,9.48
2022-08-17T19:27:49.989Z,9.75
2022-08-17T19:30:17.407Z,10.02
2022-08-17T19:32:44.047Z,9.98
2022-08-17T19:35:17.108Z,9.68
2022-08-17T19:38:12.767Z,10.40
2022-08-17T19:40:52.966Z,10.65
2022-08-17T19:43:48.413Z,10.38
2022-08-17T19:46:26.184Z,10.65
2022-08-17T19:48:58.865Z,10.60
2022-08-17T19:51:34.252Z,10.07
2022-08-17T19:54:20.478Z,11.13
2022-08-17T19:57:01.905Z,11.02
2022-08-17T19:59:56.581Z,10.73
2022-08-17T20:03:06.099Z,11.15
2022-08-17T20:06:08.586Z,11.00
2022-08-17T20:08:29.038Z,10.95
2022-08-17T20:10:59.159Z,11.18
2022-08-17T20:13:35.424Z,12.40
2022-08-17T20:18:37.875Z,13.02
2022-08-17T20:21:20.054Z,11.93
2022-08-17T20:23:59.699Z,12.20
2022-08-17T20:26:55.213Z,12.23
2022-08-17T20:29:40.233Z,11.90
2022-08-17T20:32:23.939Z,11.95
2022-08-17T20:35:05.627Z,12.30
2022-08-17T20:37:35.432Z,11.98
2022-08-17T20:40:05.786Z,12.70
2022-08-17T20:42:33.873Z,12.68
2022-08-17T20:45:21.694Z,11.57
2022-08-17T20:48:18.653Z,12.43
2022-08-17T20:50:45.329Z,12.43
2022-08-17T20:53:48.065Z,13.57
2022-08-17T20:56:44.687Z,12.75
2022-08-17T20:59:27.536Z,11.30
2022-08-17T21:02:12.452Z,10.75
2022-08-17T21:04:52.870Z,12.73
2022-08-17T21:07:25.729Z,11.10
2022-08-17T21:09:52.625Z,10.68
2022-08-17T21:12:39.548Z,12.60
2022-08-17T21:15:30.993Z,12.65
2022-08-17T21:18:00.730Z,11.80
2022-08-17T21:20:59.655Z,11.77
2022-08-17T21:23:26.332Z,11.25
2022-08-17T21:26:17.399Z,11.07
2022-08-17T21:29:00.338Z,11.40
2022-08-17T21:31:43.182Z,10.75
2022-08-17T21:34:15.772Z,11.80
2022-08-17T21:36:45.195Z,11.20
2022-08-17T21:39:21.464Z,10.23
2022-08-17T21:41:54.396Z,9.98
2022-08-17T21:44:48.068Z,12.32
2022-08-17T21:47:26.640Z,11.60
2022-08-17T21:49:55.092Z,11.10
2022-08-17T21:52:27.392Z,10.05
2022-08-17T21:54:58.518Z,10.48
2022-08-17T21:57:28.383Z,11.30
2022-08-17T21:59:57.622Z,9.95
2022-08-17T22:02:26.838Z,10.98
2022-08-17T22:05:07.464Z,11.02
2022-08-17T22:07:47.093Z,11.93
2022-08-17T22:10:44.501Z,10.57
2022-08-17T22:15:47.268Z,10.85
2022-08-17T22:18:19.870Z,11.38
2022-08-17T22:20:51.646Z,10.90
2022-08-17T22:23:59.501Z,11.80
2022-08-17T22:29:45.947Z,12.65
2022-08-17T22:32:31.636Z,12.30
2022-08-17T22:35:28.915Z,12.98
2022-08-17T22:37:57.006Z,12.40
2022-08-17T22:40:30.501Z,13.23
2022-08-17T22:42:59.224Z,14.40
2022-08-17T22:45:28.358Z,12.90
2022-08-17T22:47:58.749Z,12.80
2022-08-17T22:50:28.475Z,12.77
2022-08-17T22:53:32.312Z,13.23
2022-08-17T22:56:17.686Z,13.25
2022-08-17T22:59:14.333Z,13.10
2022-08-17T23:01:42.176Z,13.07
2022-08-17T23:04:12.192Z,13.80
2022-08-17T23:06:42.388Z,14.55
2022-08-17T23:09:09.338Z,13.80
2022-08-17T23:11:48.668Z,12.98
2022-08-17T23:14:20.963Z,13.15
2022-08-17T23:16:50.125Z,14.80
2022-08-17T23:19:19.848Z,16.63
2022-08-17T23:21:47.331Z,17.40
2022-08-17T23:24:24.489Z,16.52
2022-08-17T23:26:51.460Z,16.33
2022-08-17T23:29:20.576Z,18.35
2022-08-17T23:31:49.208Z,17.42
2022-08-17T23:34:18.444Z,19.17
2022-08-17T23:36:50.705Z,16.08
2022-08-17T23:39:27.303Z,17.23
2022-08-17T23:42:03.366Z,14.68
2022-08-17T23:44:31.298Z,14.70
2022-08-17T23:46:57.810Z,14.75
2022-08-17T23:49:25.162Z,15.15
2022-08-17T23:51:54.731Z,14.38
2022-08-17T23:54:43.874Z,15.18
2022-08-17T23:57:17.030Z,15.65
2022-08-17T23:59:44.223Z,16.42
